Time;durP1;ratioP1;P1;durP2;ratioP2;P2;SDS_P1;SDS_P2;PMS_P1;PMS_P2;Temp;Humidity;BMP_temperature;BMP_pressure;BME280_temperature;BME280_humidity;BME280_pressure;Samples;Min_cycle;Max_cycle;Signal;HPM_P1;HPM_P2
2023/01/09 00:00:44;;;;;;;1.23;0.80;;;;;;;12.06;60.17;99300.38;6181625;23;20440;-71
2023/01/09 00:03:11;;;;;;;0.95;0.80;;;;;;;12.06;60.12;99292.31;6155100;22;20024;-71
2023/01/09 00:05:37;;;;;;;1.50;0.70;;;;;;;12.07;59.89;99291.31;6181750;23;20070;-71
2023/01/09 00:08:04;;;;;;;2.30;0.85;;;;;;;12.07;59.98;99291.31;6155642;23;20023;-71
2023/01/09 00:10:31;;;;;;;2.17;0.70;;;;;;;12.07;60.03;99291.31;6181853;22;20461;-72
2023/01/09 00:13:01;;;;;;;1.33;0.77;;;;;;;12.05;59.61;99299.53;6182111;22;20084;-72
2023/01/09 00:15:28;;;;;;;0.88;0.52;;;;;;;12.04;59.72;99297.84;6155278;23;20032;-71
2023/01/09 00:17:55;;;;;;;1.05;0.60;;;;;;;12.00;59.56;99296.47;6181620;22;20506;-71
2023/01/09 00:20:22;;;;;;;0.60;0.50;;;;;;;11.97;59.47;99302.16;6155126;23;20044;-72
2023/01/09 00:22:48;;;;;;;0.82;0.50;;;;;;;11.94;59.69;99289.03;6181403;23;20096;-71
2023/01/09 00:25:15;;;;;;;1.92;0.57;;;;;;;11.92;59.37;99292.88;6181835;23;20066;-70
2023/01/09 00:27:41;;;;;;;1.13;0.55;;;;;;;11.90;59.67;99297.56;6181940;22;20017;-70
2023/01/09 00:30:09;;;;;;;0.70;0.50;;;;;;;11.87;59.55;99301.38;6155341;23;20079;-71
2023/01/09 00:32:35;;;;;;;1.08;0.52;;;;;;;11.85;59.28;99310.59;6181465;22;20013;-71
2023/01/09 00:35:02;;;;;;;0.77;0.50;;;;;;;11.81;59.51;99306.53;6155514;23;20017;-71
2023/01/09 00:37:29;;;;;;;0.70;0.45;;;;;;;11.75;59.36;99308.81;6181876;23;20024;-71
2023/01/09 00:39:55;;;;;;;0.90;0.60;;;;;;;11.69;59.34;99311.28;6155173;23;20317;-71
2023/01/09 00:42:27;;;;;;;0.60;0.50;;;;;;;11.64;59.02;99316.25;6181342;23;20017;-70
2023/01/09 00:44:57;;;;;;;0.60;0.45;;;;;;;11.62;59.11;99315.56;6181612;22;20013;-72
2023/01/09 00:47:31;;;;;;;0.63;0.40;;;;;;;11.60;59.37;99317.56;6181410;22;20067;-72
2023/01/09 00:50:08;;;;;;;0.98;0.50;;;;;;;11.56;59.13;99322.41;6181973;22;20025;-71
2023/01/09 00:52:36;;;;;;;1.58;0.60;;;;;;;11.51;59.08;99322.00;6180927;23;20047;-71
2023/01/09 00:55:04;;;;;;;0.98;0.60;;;;;;;11.46;59.03;99322.47;6155466;23;20063;-71
2023/01/09 00:57:31;;;;;;;0.82;0.50;;;;;;;11.40;58.97;99323.06;6181563;23;20017;-70
2023/01/09 00:59:59;;;;;;;1.30;0.70;;;;;;;11.36;58.97;99329.75;6181872;22;20017;-71
2023/01/09 01:02:25;;;;;;;0.80;0.60;;;;;;;11.32;59.24;99331.06;6154680;23;20447;-70
2023/01/09 01:07:38;;;;;;;0.63;0.60;;;;;;;11.26;59.07;99346.94;6181358;23;20017;-71
2023/01/09 01:10:07;;;;;;;1.38;0.60;;;;;;;11.21;59.13;99347.38;6181501;23;20020;-71
2023/01/09 01:12:33;;;;;;;1.27;0.60;;;;;;;11.15;58.79;99345.28;6181255;23;20071;-70
2023/01/09 01:15:00;;;;;;;1.80;0.60;;;;;;;11.09;58.76;99344.00;6181371;23;20017;-71
2023/01/09 01:17:27;;;;;;;1.10;0.70;;;;;;;11.07;58.89;99346.00;6181109;22;20427;-71
2023/01/09 01:19:54;;;;;;;2.65;0.77;;;;;;;11.04;58.83;99340.94;6181577;23;20076;-70
2023/01/09 01:22:20;;;;;;;2.88;0.82;;;;;;;10.99;58.94;99337.84;6180837;23;20435;-70
2023/01/09 01:24:47;;;;;;;1.48;0.70;;;;;;;10.94;59.04;99339.28;6181212;23;20092;-70
2023/01/09 01:27:13;;;;;;;1.88;0.88;;;;;;;10.93;58.87;99348.34;6181398;23;20040;-71
2023/01/09 01:29:40;;;;;;;2.67;0.70;;;;;;;10.91;58.84;99347.63;6182265;23;20028;-70
2023/01/09 01:32:07;;;;;;;1.27;0.73;;;;;;;10.90;59.10;99348.63;6182944;22;20131;-71
2023/01/09 01:34:33;;;;;;;1.63;0.70;;;;;;;10.88;58.81;99343.41;6182603;23;20025;-71
2023/01/09 01:37:00;;;;;;;1.95;0.80;;;;;;;10.85;59.17;99343.69;6182684;23;20017;-70
2023/01/09 01:39:26;;;;;;;1.95;1.10;;;;;;;10.82;58.77;99344.84;6187756;23;20084;-70
2023/01/09 01:41:53;;;;;;;2.20;0.90;;;;;;;10.80;58.88;99343.28;6186934;23;21952;-71
2023/01/09 01:44:57;;;;;;;1.02;0.88;;;;;;;10.76;59.06;99345.44;6182568;23;20458;-71
2023/01/09 01:47:33;;;;;;;1.33;1.00;;;;;;;10.77;58.99;99343.59;6182794;22;20013;-70
2023/01/09 01:50:06;;;;;;;1.23;0.70;;;;;;;10.75;59.15;99346.44;6182787;23;20312;-71
2023/01/09 01:52:35;;;;;;;1.92;0.82;;;;;;;10.75;58.91;99354.47;6182531;23;20032;-70
2023/01/09 01:55:05;;;;;;;2.58;0.80;;;;;;;10.75;58.92;99350.94;6182535;22;20329;-72
2023/01/09 01:57:33;;;;;;;3.38;0.93;;;;;;;10.73;58.97;99352.94;6182405;23;20013;-70
2023/01/09 02:00:05;;;;;;;2.35;1.00;;;;;;;10.70;59.02;99361.28;6183381;23;20024;-71
2023/01/09 02:02:35;;;;;;;2.65;1.13;;;;;;;10.66;58.78;99358.03;6181773;23;20320;-70
2023/01/09 02:05:04;;;;;;;1.48;0.80;;;;;;;10.65;58.99;99356.34;6182715;23;20017;-70
2023/01/09 02:07:30;;;;;;;1.45;0.95;;;;;;;10.63;59.13;99358.34;6182691;23;20017;-71
2023/01/09 02:09:57;;;;;;;3.08;1.00;;;;;;;10.61;59.04;99356.78;6182427;23;20523;-71
2023/01/09 02:12:26;;;;;;;1.35;1.00;;;;;;;10.58;59.14;99357.94;6181956;23;20020;-71
2023/01/09 02:15:06;;;;;;;1.48;0.90;;;;;;;10.59;59.15;99370.34;6182420;23;20017;-71
2023/01/09 02:17:42;;;;;;;3.25;0.98;;;;;;;10.60;58.85;99368.50;6182436;23;20017;-71
2023/01/09 02:20:30;;;;;;;2.28;0.90;;;;;;;10.57;59.07;99356.22;6182353;23;20452;-72
2023/01/09 02:23:04;;;;;;;5.07;1.38;;;;;;;10.56;58.78;99362.59;6182299;23;20027;-72
2023/01/09 02:25:55;;;;;;;3.75;1.10;;;;;;;10.51;58.75;99367.53;6182347;23;20432;-70
2023/01/09 02:28:41;;;;;;;4.72;1.00;;;;;;;10.47;59.05;99363.47;6156122;23;20021;-70
2023/01/09 02:31:19;;;;;;;2.42;0.98;;;;;;;10.43;58.97;99367.44;6182284;23;20023;-71
2023/01/09 02:34:07;;;;;;;3.35;1.27;;;;;;;10.41;58.98;99366.72;6181864;23;20066;-70
2023/01/09 02:36:53;;;;;;;2.75;1.48;;;;;;;10.41;58.85;99369.41;6182332;23;20013;-71
2023/01/09 02:39:26;;;;;;;2.33;1.00;;;;;;;10.39;58.85;99366.84;6181943;23;20013;-71
2023/01/09 02:42:01;;;;;;;2.58;1.02;;;;;;;10.36;58.87;99369.81;6181770;23;20032;-71
2023/01/09 02:44:29;;;;;;;2.53;1.30;;;;;;;10.34;58.76;99373.63;6182572;23;20013;-71
2023/01/09 02:47:07;;;;;;;2.17;1.05;;;;;;;10.33;59.01;99383.50;6182456;23;20391;-71
2023/01/09 02:49:37;;;;;;;2.25;1.00;;;;;;;10.32;59.00;99375.59;6182209;23;20016;-71
2023/01/09 02:52:06;;;;;;;1.52;1.17;;;;;;;10.30;58.85;99377.59;6182131;23;20052;-70
2023/01/09 02:54:36;;;;;;;1.88;0.98;;;;;;;10.29;58.95;99373.22;6182070;23;20015;-71
2023/01/09 02:57:36;;;;;;;1.92;1.17;;;;;;;10.24;58.70;99368.28;6182487;23;20512;-71
2023/01/09 03:00:23;;;;;;;2.55;1.20;;;;;;;10.19;58.74;99375.88;6137495;23;20025;-71
2023/01/09 03:02:57;;;;;;;2.22;1.00;;;;;;;10.15;58.57;99369.09;6155677;22;20377;-71
2023/01/09 03:05:56;;;;;;;3.22;1.20;;;;;;;10.08;58.85;99360.75;6155894;22;20508;-71
2023/01/09 03:08:30;;;;;;;2.75;1.10;;;;;;;10.06;58.76;99369.94;6181501;23;20013;-72
2023/01/09 03:11:03;;;;;;;2.15;1.30;;;;;;;10.01;58.82;99364.16;6182339;23;20019;-70
2023/01/09 03:13:35;;;;;;;2.60;1.20;;;;;;;9.94;58.88;99366.56;6181872;23;20021;-71
2023/01/09 03:16:06;;;;;;;2.28;1.42;;;;;;;9.87;58.73;99360.06;6182372;23;20099;-70
2023/01/09 03:18:35;;;;;;;2.38;1.55;;;;;;;9.80;58.53;99358.94;6182394;22;20041;-70
2023/01/09 03:21:05;;;;;;;4.35;1.80;;;;;;;9.77;58.80;99359.22;6181914;22;20017;-71
2023/01/09 03:23:50;;;;;;;3.72;2.00;;;;;;;9.74;58.90;99354.13;6181595;22;20021;-71
2023/01/09 03:26:17;;;;;;;3.78;2.25;;;;;;;9.74;59.00;99354.97;6182526;22;20017;-71
2023/01/09 03:28:44;;;;;;;6.15;2.47;;;;;;;9.71;59.14;99351.72;6182068;22;20088;-70
2023/01/09 03:31:11;;;;;;;6.72;2.83;;;;;;;9.70;59.30;99353.56;6182146;23;20017;-72
2023/01/09 03:33:39;;;;;;;4.82;2.03;;;;;;;9.68;59.37;99352.00;6181871;23;20067;-71
2023/01/09 03:36:06;;;;;;;3.38;1.70;;;;;;;9.63;59.09;99357.75;6182422;22;20035;-71
2023/01/09 03:38:33;;;;;;;4.13;2.35;;;;;;;9.61;59.43;99350.84;6181959;23;20070;-71
2023/01/09 03:40:59;;;;;;;3.63;1.90;;;;;;;9.60;59.29;99359.88;6182156;23;20100;-71
2023/01/09 03:43:26;;;;;;;3.83;2.17;;;;;;;9.57;59.34;99361.00;6181843;23;20020;-70
2023/01/09 03:45:53;;;;;;;3.40;2.03;;;;;;;9.57;59.63;99361.84;6181959;22;20017;-71
2023/01/09 03:48:20;;;;;;;4.30;1.88;;;;;;;9.57;59.52;99369.03;6181844;23;20443;-71
2023/01/09 03:50:49;;;;;;;3.85;2.25;;;;;;;9.56;59.38;99373.56;6181768;22;20021;-71
2023/01/09 03:53:16;;;;;;;3.40;1.60;;;;;;;9.54;59.69;99364.81;6181728;23;20458;-70
2023/01/09 03:55:47;;;;;;;5.40;2.33;;;;;;;9.53;59.64;99365.78;6182252;22;20009;-72
2023/01/09 03:58:14;;;;;;;5.05;1.98;;;;;;;9.52;59.70;99371.28;6182021;23;20092;-73
2023/01/09 04:00:44;;;;;;;3.40;1.67;;;;;;;9.48;59.65;99368.03;6181725;22;20037;-71
2023/01/09 04:03:11;;;;;;;4.10;1.88;;;;;;;9.46;59.77;99359.28;6181466;22;20013;-72
2023/01/09 04:05:38;;;;;;;5.63;2.22;;;;;;;9.46;59.70;99356.59;6181831;23;20039;-70
2023/01/09 04:08:05;;;;;;;5.43;1.80;;;;;;;9.48;59.92;99360.00;6182160;23;20009;-72
2023/01/09 04:10:32;;;;;;;3.80;1.85;;;;;;;9.50;59.88;99360.72;6181808;23;20039;-72
2023/01/09 04:12:58;;;;;;;4.25;2.20;;;;;;;9.48;59.81;99359.16;6181570;23;20017;-72
2023/01/09 04:15:25;;;;;;;4.53;2.42;;;;;;;9.47;59.96;99358.31;6181615;23;20039;-71
2023/01/09 04:17:51;;;;;;;6.03;2.40;;;;;;;9.47;59.85;99365.50;6181884;23;20051;-72
2023/01/09 04:20:18;;;;;;;2.35;1.90;;;;;;;9.46;60.04;99359.28;6155816;23;20021;-72
2023/01/09 04:22:45;;;;;;;4.72;1.92;;;;;;;9.44;60.11;99369.31;6181443;23;20347;-72
2023/01/09 04:25:11;;;;;;;4.55;1.90;;;;;;;9.45;60.07;99364.78;6155894;23;20015;-72
2023/01/09 04:27:38;;;;;;;6.93;1.80;;;;;;;9.49;60.27;99358.16;6182000;23;20017;-71
2023/01/09 04:30:05;;;;;;;4.53;1.90;;;;;;;9.52;60.30;99365.94;6181712;23;20449;-70
2023/01/09 04:32:32;;;;;;;5.03;1.73;;;;;;;9.54;60.44;99367.47;6181475;23;20017;-72
2023/01/09 04:34:58;;;;;;;3.95;2.00;;;;;;;9.52;60.30;99364.09;6155441;23;20020;-71
2023/01/09 04:37:25;;;;;;;3.40;1.80;;;;;;;9.52;60.31;99371.28;6181173;22;20092;-71
2023/01/09 04:39:54;;;;;;;3.33;1.55;;;;;;;9.50;60.17;99370.56;6181755;23;20088;-72
2023/01/09 04:42:21;;;;;;;4.47;1.60;;;;;;;9.50;60.13;99374.09;6180580;23;20100;-72
2023/01/09 04:44:52;;;;;;;4.70;1.90;;;;;;;9.48;60.26;99362.69;6181744;23;20015;-72
2023/01/09 04:47:20;;;;;;;3.47;1.58;;;;;;;9.51;60.47;99381.16;6182047;23;20043;-72
2023/01/09 04:49:46;;;;;;;4.43;1.45;;;;;;;9.53;60.53;99373.81;6181817;23;20044;-72
2023/01/09 04:52:13;;;;;;;3.97;1.50;;;;;;;9.59;60.48;99380.47;6181242;23;20009;-72
2023/01/09 04:54:39;;;;;;;3.22;1.60;;;;;;;9.64;60.80;99377.38;6181567;23;20450;-72
2023/01/09 04:57:06;;;;;;;4.72;1.73;;;;;;;9.67;60.66;99377.97;6181860;23;20347;-71
2023/01/09 04:59:33;;;;;;;6.10;2.03;;;;;;;9.71;60.89;99370.50;6181496;23;20427;-72
2023/01/09 05:01:59;;;;;;;4.20;1.38;;;;;;;9.77;60.72;99377.97;6181386;23;20021;-72
2023/01/09 05:04:26;;;;;;;4.43;1.63;;;;;;;9.81;60.75;99382.94;6181298;23;20560;-71
2023/01/09 05:06:53;;;;;;;7.10;1.70;;;;;;;9.86;60.68;99379.81;6181637;23;20078;-71
2023/01/09 05:09:20;;;;;;;5.95;1.80;;;;;;;9.88;60.92;99377.84;6181763;23;20111;-71
2023/01/09 05:11:47;;;;;;;6.32;2.95;;;;;;;9.93;60.96;99374.75;6181370;23;20384;-71
2023/01/09 05:14:14;;;;;;;6.18;2.25;;;;;;;9.97;60.68;99381.53;6181647;23;20043;-71
2023/01/09 05:16:41;;;;;;;3.33;1.92;;;;;;;10.00;61.11;99381.25;6181859;23;20040;-71
2023/01/09 05:19:07;;;;;;;4.60;1.80;;;;;;;10.01;60.86;99377.56;6181709;23;20044;-71
2023/01/09 05:21:34;;;;;;;6.88;1.88;;;;;;;10.04;61.05;99383.50;6181247;23;20382;-71
2023/01/09 05:24:00;;;;;;;6.35;1.98;;;;;;;10.09;61.00;99375.03;6181433;23;20017;-71
2023/01/09 05:26:27;;;;;;;4.68;1.65;;;;;;;10.11;60.98;99381.09;6155242;23;20018;-72
2023/01/09 05:28:55;;;;;;;3.22;1.48;;;;;;;10.11;61.07;99381.94;6181533;23;20088;-70
2023/01/09 05:31:23;;;;;;;5.80;1.30;;;;;;;10.14;60.86;99378.13;6181412;23;20021;-71
2023/01/09 05:33:50;;;;;;;3.78;1.50;;;;;;;10.16;60.84;99377.00;6181183;23;20031;-71
2023/01/09 05:36:16;;;;;;;4.90;1.60;;;;;;;10.19;61.00;99368.66;6181189;23;20066;-70
2023/01/09 05:38:43;;;;;;;4.63;1.42;;;;;;;10.21;60.89;99365.03;6181191;23;20396;-70
2023/01/09 05:41:10;;;;;;;5.72;1.27;;;;;;;10.23;60.95;99366.56;6181365;23;20035;-71
2023/01/09 05:43:36;;;;;;;4.38;1.80;;;;;;;10.25;60.86;99359.22;6181208;23;20342;-70
2023/01/09 05:46:03;;;;;;;4.55;1.63;;;;;;;10.26;61.03;99362.75;6181233;23;20088;-71
2023/01/09 05:48:29;;;;;;;5.25;1.85;;;;;;;10.27;61.39;99357.25;6181183;23;20017;-71
2023/01/09 05:50:56;;;;;;;5.82;1.70;;;;;;;10.29;61.06;99363.31;6181048;23;20017;-70
2023/01/09 05:53:23;;;;;;;9.00;2.15;;;;;;;10.30;60.89;99361.47;6154951;23;20052;-71
2023/01/09 05:55:49;;;;;;;4.75;1.60;;;;;;;10.33;60.92;99361.19;6181253;23;20069;-71
2023/01/09 05:58:16;;;;;;;5.25;1.33;;;;;;;10.33;60.99;99364.72;6154897;23;20017;-72
2023/01/09 06:00:42;;;;;;;8.82;1.55;;;;;;;10.35;60.97;99361.91;6180848;23;20018;-71
2023/01/09 06:03:09;;;;;;;3.97;1.50;;;;;;;10.38;61.18;99364.28;6180592;23;20432;-71
2023/01/09 06:05:35;;;;;;;5.00;1.83;;;;;;;10.41;60.99;99369.41;6180941;23;20013;-71
2023/01/09 06:08:02;;;;;;;4.40;1.60;;;;;;;10.43;60.96;99360.22;6181018;23;20070;-71
2023/01/09 06:10:29;;;;;;;5.70;1.98;;;;;;;10.48;61.08;99362.47;6181194;23;20017;-70
2023/01/09 06:12:55;;;;;;;9.85;2.42;;;;;;;10.52;61.00;99366.56;6154735;23;20397;-71
2023/01/09 06:15:22;;;;;;;6.82;2.45;;;;;;;10.53;61.12;99346.78;6182139;23;20067;-71
2023/01/09 06:17:49;;;;;;;4.22;1.98;;;;;;;10.54;60.95;99353.84;6182580;23;20016;-71
2023/01/09 06:20:16;;;;;;;6.38;1.77;;;;;;;10.57;60.87;99347.34;6182264;23;20024;-71
2023/01/09 06:22:44;;;;;;;5.55;1.88;;;;;;;10.62;60.89;99353.09;6181910;23;20096;-72
2023/01/09 06:25:11;;;;;;;4.47;1.65;;;;;;;10.64;60.89;99348.44;6182177;23;20520;-71
2023/01/09 06:27:38;;;;;;;6.60;1.98;;;;;;;10.64;60.67;99351.13;6182424;23;20020;-72
2023/01/09 06:30:05;;;;;;;6.28;1.70;;;;;;;10.65;61.02;99350.97;6182516;22;20067;-72
2023/01/09 06:32:32;;;;;;;5.88;1.85;;;;;;;10.67;60.94;99342.78;6182117;23;20009;-71
2023/01/09 06:34:59;;;;;;;7.07;2.20;;;;;;;10.69;60.91;99349.69;6182338;23;20017;-71
2023/01/09 06:37:25;;;;;;;5.07;1.88;;;;;;;10.71;60.86;99347.72;6182407;23;20017;-71
2023/01/09 06:39:53;;;;;;;6.18;1.75;;;;;;;10.71;61.05;99346.88;6155650;23;20112;-73
2023/01/09 06:42:19;;;;;;;8.18;2.25;;;;;;;10.73;61.00;99350.25;6182134;23;20013;-73
2023/01/09 06:44:46;;;;;;;9.18;2.00;;;;;;;10.76;60.99;99361.53;6182115;23;20017;-72
2023/01/09 06:47:13;;;;;;;7.22;1.70;;;;;;;10.76;61.07;99361.53;6182327;23;20021;-74
2023/01/09 06:49:39;;;;;;;8.38;2.05;;;;;;;10.77;60.68;99365.06;6182579;23;20009;-72
2023/01/09 06:52:06;;;;;;;3.80;1.63;;;;;;;10.76;60.90;99358.84;6181923;23;20388;-72
2023/01/09 06:54:34;;;;;;;9.32;2.08;;;;;;;10.78;60.84;99359.56;6182129;23;20093;-71
2023/01/09 06:57:00;;;;;;;5.40;1.98;;;;;;;10.81;61.01;99355.72;6182047;23;20119;-72
2023/01/09 06:59:27;;;;;;;9.13;1.90;;;;;;;10.82;61.11;99360.09;6156183;23;20021;-72
2023/01/09 07:01:53;;;;;;;5.88;1.75;;;;;;;10.81;60.71;99353.03;6181855;23;20013;-71
2023/01/09 07:04:23;;;;;;;7.10;2.17;;;;;;;10.80;61.03;99354.88;6181685;23;20082;-71
2023/01/09 07:06:49;;;;;;;5.90;2.03;;;;;;;10.83;61.00;99353.75;6182140;23;20380;-71
2023/01/09 07:09:16;;;;;;;5.45;1.50;;;;;;;10.83;60.81;99351.06;6182094;23;20017;-73
2023/01/09 07:11:42;;;;;;;7.28;1.90;;;;;;;10.85;60.90;99351.75;6181729;23;20483;-72
2023/01/09 07:14:09;;;;;;;5.43;1.98;;;;;;;10.84;60.94;99350.06;6181876;23;20017;-72
2023/01/09 07:16:35;;;;;;;5.57;1.92;;;;;;;10.85;61.09;99348.22;6182058;22;20018;-71
2023/01/09 07:19:02;;;;;;;7.35;2.20;;;;;;;10.89;60.99;99355.00;6155712;23;20455;-71
2023/01/09 07:21:29;;;;;;;11.05;2.30;;;;;;;10.90;61.15;99349.47;6181985;23;20013;-71
2023/01/09 07:23:58;;;;;;;5.45;2.10;;;;;;;10.92;61.20;99352.00;6181841;23;20017;-72
2023/01/09 07:26:25;;;;;;;7.72;1.80;;;;;;;10.95;60.96;99357.09;6181779;23;20024;-72
2023/01/09 07:28:51;;;;;;;8.80;2.13;;;;;;;10.96;61.04;99354.25;6181822;23;20439;-72
2023/01/09 07:31:18;;;;;;;8.18;2.13;;;;;;;10.99;60.88;99361.19;6181979;23;20386;-71
2023/01/09 07:33:45;;;;;;;5.18;2.25;;;;;;;11.01;61.06;99369.94;6181917;23;20056;-72
2023/01/09 07:36:11;;;;;;;4.47;1.90;;;;;;;11.03;61.29;99376.84;6181861;23;20095;-71
2023/01/09 07:38:38;;;;;;;7.82;2.30;;;;;;;11.06;60.81;99365.81;6182011;23;20013;-72
2023/01/09 07:41:05;;;;;;;7.50;2.58;;;;;;;11.07;61.09;99372.88;6181932;23;20017;-72
2023/01/09 07:43:32;;;;;;;9.15;2.25;;;;;;;11.08;61.09;99377.25;6181592;23;20021;-73
2023/01/09 07:45:58;;;;;;;7.93;2.40;;;;;;;11.07;60.97;99383.63;6155605;23;20119;-73
2023/01/09 07:48:25;;;;;;;6.57;1.88;;;;;;;11.09;61.02;99380.78;6182082;23;20530;-74
2023/01/09 07:50:51;;;;;;;9.60;2.53;;;;;;;11.11;60.74;99382.31;6155858;23;20017;-74
2023/01/09 07:53:18;;;;;;;6.00;1.80;;;;;;;11.13;60.93;99388.41;6155143;23;20108;-73
2023/01/09 07:55:45;;;;;;;5.70;1.90;;;;;;;11.14;60.91;99394.63;6155298;23;20512;-73
2023/01/09 07:58:15;;;;;;;11.07;2.35;;;;;;;11.15;60.88;99396.34;6181773;23;20391;-73
2023/01/09 08:00:41;;;;;;;7.70;1.88;;;;;;;11.14;60.98;99398.16;6181724;23;20021;-72
2023/01/09 08:03:08;;;;;;;8.98;2.05;;;;;;;11.14;60.90;99398.16;6155366;22;20017;-70
2023/01/09 08:05:38;;;;;;;3.97;2.00;;;;;;;11.13;61.15;99399.16;6155030;23;20328;-73
2023/01/09 08:08:06;;;;;;;6.22;2.60;;;;;;;11.16;61.33;99402.56;6181843;22;20017;-73
2023/01/09 08:10:32;;;;;;;10.40;2.83;;;;;;;11.17;61.16;99406.94;6181893;23;20011;-72
2023/01/09 08:12:59;;;;;;;4.85;2.28;;;;;;;11.16;61.06;99411.47;6181609;23;20013;-72
2023/01/09 08:15:27;;;;;;;10.68;2.40;;;;;;;11.17;61.24;99415.00;6181611;23;20043;-73
2023/01/09 08:17:54;;;;;;;6.43;2.13;;;;;;;11.16;60.99;99430.28;6181774;23;20013;-72
2023/01/09 08:20:20;;;;;;;8.02;2.67;;;;;;;11.17;61.07;99431.97;6181752;23;20024;-73
2023/01/09 08:22:48;;;;;;;7.32;2.10;;;;;;;11.17;61.47;99426.59;6181687;23;20028;-73
2023/01/09 08:25:16;;;;;;;7.45;2.55;;;;;;;11.17;61.31;99431.97;6153988;23;20021;-71
2023/01/09 08:27:43;;;;;;;7.07;2.25;;;;;;;11.18;61.22;99439.03;6181749;23;20017;-72
2023/01/09 08:30:11;;;;;;;4.72;1.77;;;;;;;11.19;61.09;99445.25;6181783;23;20511;-75
2023/01/09 08:32:38;;;;;;;5.47;2.10;;;;;;;11.20;61.39;99453.19;6181885;23;20418;-71
2023/01/09 08:35:09;;;;;;;8.23;2.42;;;;;;;11.21;61.29;99454.03;6181858;23;20021;-72
2023/01/09 08:37:35;;;;;;;11.93;2.53;;;;;;;11.20;61.41;99458.56;6190840;23;20024;-71
2023/01/09 08:40:02;;;;;;;7.50;1.95;;;;;;;11.21;61.32;99462.94;6181955;23;20025;-72
2023/01/09 08:48:00;;;;;;;9.27;2.50;;;;;;;11.24;61.30;99461.78;6180551;23;20023;-72
2023/01/09 08:50:27;;;;;;;4.07;2.22;;;;;;;11.25;61.24;99472.41;6153642;23;20017;-71
2023/01/09 08:52:53;;;;;;;7.65;2.72;;;;;;;11.27;61.18;99474.94;6180082;23;20021;-73
2023/01/09 08:55:20;;;;;;;6.97;2.33;;;;;;;11.29;61.28;99483.69;6180807;23;20096;-72
2023/01/09 08:57:50;;;;;;;6.90;2.22;;;;;;;11.30;61.30;99488.06;6181388;23;20462;-72
2023/01/09 09:00:19;;;;;;;5.35;2.50;;;;;;;11.31;61.41;99490.63;6155112;23;20021;-74
2023/01/09 09:02:53;;;;;;;6.20;2.40;;;;;;;11.34;61.38;99495.69;6154711;23;20023;-73
2023/01/09 09:05:21;;;;;;;6.85;2.58;;;;;;;11.38;61.37;99499.78;6181587;22;20025;-71
2023/01/09 09:07:54;;;;;;;6.93;2.95;;;;;;;11.41;61.32;99507.56;6181227;22;20013;-72
2023/01/09 09:10:23;;;;;;;5.72;2.45;;;;;;;11.42;61.20;99511.09;6181459;22;20321;-71
2023/01/09 09:12:51;;;;;;;7.47;2.67;;;;;;;11.45;61.19;99519.72;6154514;23;20111;-72
2023/01/09 09:15:24;;;;;;;3.45;2.28;;;;;;;11.47;61.48;99533.00;6154930;22;20017;-71
2023/01/09 09:17:53;;;;;;;4.88;2.53;;;;;;;11.49;61.00;99535.53;6181324;22;20481;-72
2023/01/09 09:20:27;;;;;;;6.35;2.72;;;;;;;11.51;61.32;99541.63;6181533;22;20024;-72
2023/01/09 09:22:54;;;;;;;4.50;2.30;;;;;;;11.53;61.29;99542.31;6181271;23;20051;-73
2023/01/09 09:25:20;;;;;;;6.55;2.58;;;;;;;11.53;61.28;99539.63;6181400;22;20028;-72
2023/01/09 09:27:47;;;;;;;5.10;2.60;;;;;;;11.52;61.25;99544.16;6180955;23;20499;-72
2023/01/09 09:30:16;;;;;;;5.38;2.67;;;;;;;11.52;61.41;99552.22;6181078;23;20033;-73
2023/01/09 09:32:43;;;;;;;11.10;3.00;;;;;;;11.55;61.53;99560.00;6180672;22;20040;-73
2023/01/09 09:35:10;;;;;;;6.60;2.40;;;;;;;11.56;61.23;99558.16;6154792;23;20017;-72
2023/01/09 09:37:38;;;;;;;5.40;3.13;;;;;;;11.56;61.60;99569.75;6181279;23;20009;-73
2023/01/09 09:40:06;;;;;;;9.93;3.13;;;;;;;11.56;61.30;99574.31;6181073;23;20019;-74
2023/01/09 09:46:35;;;;;;;6.80;2.90;;;;;;;11.57;61.36;99582.22;6154534;23;20021;-70
2023/01/09 09:49:12;;;;;;;6.53;2.80;;;;;;;11.59;61.35;99590.13;6135328;23;20021;-69
2023/01/09 09:52:13;;;;;;;6.50;2.90;;;;;;;11.59;61.74;99609.81;6180750;23;20092;-70
2023/01/09 09:54:43;;;;;;;8.65;2.88;;;;;;;11.63;61.61;99605.84;6180697;23;20455;-69
2023/01/09 09:57:16;;;;;;;4.85;2.30;;;;;;;11.64;61.66;99620.97;6180969;23;20021;-70
2023/01/09 09:59:43;;;;;;;5.05;3.17;;;;;;;11.66;61.67;99624.38;6180820;22;20021;-70
2023/01/09 10:02:37;;;;;;;5.13;2.92;;;;;;;11.65;61.53;99622.66;6180655;22;20458;-69
2023/01/09 10:05:14;;;;;;;5.70;3.25;;;;;;;11.66;61.60;99623.53;6156207;23;20017;-70
2023/01/09 10:07:46;;;;;;;6.53;2.90;;;;;;;11.67;61.54;99630.59;6182173;23;20087;-69
2023/01/09 10:10:28;;;;;;;3.75;2.75;;;;;;;11.70;61.78;99633.00;6156454;23;20009;-70
2023/01/09 10:12:58;;;;;;;6.82;3.20;;;;;;;11.73;61.21;99640.75;6155504;23;20021;-70
2023/01/09 10:15:44;;;;;;;5.68;3.03;;;;;;;11.74;61.67;99645.16;6182227;23;20040;-69
2023/01/09 10:18:16;;;;;;;7.57;3.20;;;;;;;11.78;61.64;99647.44;6182502;23;20013;-70
2023/01/09 10:20:56;;;;;;;6.55;3.55;;;;;;;11.82;61.80;99648.00;6156086;23;20013;-69
2023/01/09 10:23:52;;;;;;;10.73;4.28;;;;;;;11.86;61.78;99657.47;6181576;23;20037;-70
2023/01/09 10:26:31;;;;;;;6.43;3.63;;;;;;;11.90;61.58;99666.97;6156224;23;20017;-69
2023/01/09 10:29:16;;;;;;;6.50;3.65;;;;;;;11.91;61.73;99670.50;6182564;23;20082;-69
2023/01/09 10:32:08;;;;;;;7.97;3.70;;;;;;;11.91;61.58;99668.66;6155728;23;20023;-70
2023/01/09 10:34:46;;;;;;;6.25;3.88;;;;;;;11.92;61.71;99667.69;6181827;23;20028;-69
2023/01/09 10:37:28;;;;;;;6.93;4.13;;;;;;;11.91;61.54;99668.66;6182088;23;20092;-69
2023/01/09 10:40:04;;;;;;;8.45;4.10;;;;;;;11.94;61.34;99670.22;6181975;23;20017;-69
2023/01/09 10:42:46;;;;;;;7.95;4.22;;;;;;;11.95;61.55;99680.00;6155200;23;20439;-69
2023/01/09 10:45:22;;;;;;;6.65;3.97;;;;;;;11.97;61.31;99678.84;6182014;23;20024;-69
2023/01/09 10:47:49;;;;;;;10.27;4.55;;;;;;;12.00;61.37;99677.69;6181954;23;20017;-69
2023/01/09 10:50:29;;;;;;;7.40;4.32;;;;;;;12.04;61.38;99689.88;6181977;23;20071;-69
2023/01/09 10:52:57;;;;;;;11.23;5.10;;;;;;;12.10;61.56;99683.91;6155310;23;20343;-69
2023/01/09 10:55:38;;;;;;;9.20;4.35;;;;;;;12.15;61.86;99692.38;6155686;23;20021;-69
2023/01/09 10:58:11;;;;;;;6.20;4.30;;;;;;;12.19;61.44;99691.09;6181540;23;20024;-69
2023/01/09 11:00:39;;;;;;;6.88;4.20;;;;;;;12.23;61.19;99688.94;6181630;23;20144;-69
2023/01/09 11:03:14;;;;;;;6.40;4.32;;;;;;;12.26;61.43;99691.34;6181465;23;20024;-69
2023/01/09 11:05:42;;;;;;;9.02;4.38;;;;;;;12.29;60.95;99691.06;6181666;23;20351;-69
2023/01/09 11:08:10;;;;;;;5.50;4.13;;;;;;;12.32;61.01;99696.13;6181850;23;20013;-69
2023/01/09 11:10:42;;;;;;;6.93;4.05;;;;;;;12.36;61.21;99695.69;6181898;23;20040;-70
2023/01/09 11:13:30;;;;;;;8.40;4.20;;;;;;;12.44;61.18;99694.94;6181532;23;20092;-69
2023/01/09 11:16:05;;;;;;;6.65;3.67;;;;;;;12.55;61.35;99704.69;6181802;22;20013;-69
2023/01/09 11:18:54;;;;;;;6.78;3.75;;;;;;;12.63;61.25;99700.28;6182007;23;20092;-69
2023/01/09 11:21:27;;;;;;;9.35;4.32;;;;;;;12.68;61.30;99697.13;6181938;23;20404;-69
2023/01/09 11:24:20;;;;;;;6.97;3.65;;;;;;;12.68;60.84;99706.06;6181241;23;20092;-69
2023/01/09 11:26:49;;;;;;;6.63;3.63;;;;;;;12.70;60.70;99705.91;6155645;23;20039;-69
2023/01/09 11:29:23;;;;;;;4.97;3.58;;;;;;;12.68;60.79;99707.91;6181864;23;20091;-69
2023/01/09 11:31:53;;;;;;;11.45;4.55;;;;;;;12.68;60.77;99713.28;6181540;22;20036;-68
2023/01/09 11:34:22;;;;;;;10.10;4.85;;;;;;;12.67;60.75;99722.38;6182104;22;20013;-69
2023/01/09 11:36:52;;;;;;;8.50;4.00;;;;;;;12.64;60.21;99720.81;6155551;23;20055;-68
2023/01/09 11:39:29;;;;;;;6.22;4.22;;;;;;;12.62;60.38;99727.31;6155125;22;20021;-67
2023/01/09 11:41:58;;;;;;;8.63;4.30;;;;;;;12.63;60.63;99726.31;6181603;23;20009;-67
2023/01/09 11:44:27;;;;;;;9.35;4.90;;;;;;;12.64;60.30;99725.38;6181262;23;20013;-68
2023/01/09 11:46:54;;;;;;;9.13;4.70;;;;;;;12.64;60.46;99739.69;6181719;23;20092;-67
2023/01/09 11:49:23;;;;;;;10.30;4.82;;;;;;;12.64;60.51;99723.50;6181375;23;20013;-68
2023/01/09 11:52:19;;;;;;;10.70;4.63;;;;;;;12.64;60.17;99730.75;6181528;23;20024;-68
2023/01/09 11:54:51;;;;;;;;;;;;;;;12.69;60.49;99729.31;6182070;23;20100;-67
2023/01/09 11:57:18;;;;;;;7.53;5.10;;;;;;;12.71;60.40;99727.31;6181812;23;19923;-67
2023/01/09 11:59:44;;;;;;;8.38;5.28;;;;;;;12.69;60.11;99739.22;6155153;23;20398;-68